Time;durP1;ratioP1;P1;durP2;ratioP2;P2;SDS_P1;SDS_P2;PMS_P1;PMS_P2;Temp;Humidity;BMP_temperature;BMP_pressure;BME280_temperature;BME280_humidity;BME280_pressure;Samples;Min_cycle;Max_cycle;Signal;HPM_P1;HPM_P2
2023/02/08 00:02:26;;;;;;;;;;;;;;;28.39;65.62;100983.16;5100953;27;65497;-38
2023/02/08 00:04:56;;;;;;;;;;;;;;;28.47;66.77;100981.19;5097828;27;70075;-38
2023/02/08 00:07:26;;;;;;;;;;;;;;;28.44;64.39;100994.22;5099210;27;66519;-37
2023/02/08 00:09:56;;;;;;;;;;;;;;;28.44;63.43;100992.34;5092863;27;70403;-39
2023/02/08 00:12:27;;;;;;;;;;;;;;;28.47;63.97;101000.06;5081954;27;65198;-37
2023/02/08 00:14:57;;;;;;;;;;;;;;;28.50;62.96;101005.06;5083660;27;69485;-38
2023/02/08 00:17:27;;;;;;;;;;;;;;;28.54;63.54;101010.06;5092523;27;66006;-37
2023/02/08 00:19:57;;;;;;;;;;;;;;;28.59;63.15;101012.97;5092972;27;70376;-35
2023/02/08 00:22:27;;;;;;;;;;;;;;;28.60;62.94;101015.47;5080128;27;66646;-35
2023/02/08 00:24:57;;;;;;;;;;;;;;;28.63;62.79;101022.31;5094093;27;70503;-35
2023/02/08 00:27:27;;;;;;;;;;;;;;;28.66;63.19;101022.75;5094092;27;66329;-35
2023/02/08 00:29:57;;;;;;;;;;;;;;;28.68;62.75;101042.28;5097785;27;70292;-36
2023/02/08 00:32:30;;;;;;;;;;;;;;;28.70;63.05;101042.09;5098059;27;67389;-35
2023/02/08 00:35:01;;;;;;;;;;;;;;;28.74;62.82;101054.13;5076628;27;69806;-36
2023/02/08 00:37:32;;;;;;;;;;;;;;;28.76;62.98;101057.47;5098116;27;67374;-36
2023/02/08 00:40:04;;;;;;;;;;;;;;;28.80;62.85;101052.50;5097001;27;69647;-35
2023/02/08 00:42:34;;;;;;;;;;;;;;;28.82;63.58;101062.06;5089440;27;66132;-36
2023/02/08 00:45:04;;;;;;;;;;;;;;;28.85;65.08;101061.66;5095181;27;69308;-35
2023/02/08 00:47:35;;;;;;;;;;;;;;;28.87;63.18;101065.00;5099659;27;66786;-35
2023/02/08 00:50:06;;;;;;;;;;;;;;;28.89;63.09;101068.34;5098071;27;68913;-35
2023/02/08 00:52:37;;;;;;;;;;;;;;;28.93;62.88;101071.44;5098003;27;65501;-35
2023/02/08 00:55:07;;;;;;;;;;;;;;;28.96;62.47;101071.03;5099984;27;70484;-36
2023/02/08 00:57:40;;;;;;;;;;;;;;;28.99;62.11;101086.84;5073153;27;58894;-35
2023/02/08 01:00:11;;;;;;;;;;;;;;;29.01;61.98;101086.66;5098688;27;69869;-36
2023/02/08 01:02:41;;;;;;;;;;;;;;;29.04;61.78;101086.28;5098554;27;66518;-36
2023/02/08 01:05:12;;;;;;;;;;;;;;;29.04;61.68;101089.81;5090379;27;69440;-36
2023/02/08 01:07:42;;;;;;;;;;;;;;;29.06;61.44;101084.19;5096611;27;66013;-34
2023/02/08 01:10:12;;;;;;;;;;;;;;;29.08;61.16;101092.91;5090092;27;69382;-35
2023/02/08 01:12:42;;;;;;;;;;;;;;;29.10;61.44;101097.09;5096427;27;66543;-35
2023/02/08 01:15:12;;;;;;;;;;;;;;;29.10;61.32;101091.69;5097972;27;70764;-35
2023/02/08 01:17:42;;;;;;;;;;;;;;;29.12;61.31;101103.13;5098478;27;67045;-35
2023/02/08 01:20:30;;;;;;;;;;;;;;;29.14;60.66;101102.91;5100373;27;69767;-37
2023/02/08 01:23:01;;;;;;;;;;;;;;;29.17;60.45;101105.22;5100249;27;66547;-35
2023/02/08 01:25:33;;;;;;;;;;;;;;;29.18;60.35;101104.19;5097447;27;70353;-35
2023/02/08 01:28:05;;;;;;;;;;;;;;;29.19;60.48;101111.25;5090184;27;66350;-35
2023/02/08 01:30:36;;;;;;;;;;;;;;;29.22;60.10;101113.53;5080419;27;70283;-35
2023/02/08 01:33:09;;;;;;;;;;;;;;;29.23;59.95;101117.91;5099421;27;65819;-36
2023/02/08 01:35:39;;;;;;;;;;;;;;;29.24;60.16;101111.47;5097968;27;70282;-35
2023/02/08 01:38:09;;;;;;;;;;;;;;;29.27;59.90;101112.94;5098082;27;66013;-35
2023/02/08 01:40:39;;;;;;;;;;;;;;;29.27;59.66;101119.16;5093782;27;70286;-37
2023/02/08 01:43:21;;;;;;;;;;;;;;;29.28;59.91;101115.44;5076951;27;65387;-36
2023/02/08 01:45:51;;;;;;;;;;;;;;;29.30;59.85;101120.63;5075514;27;69628;-35
2023/02/08 01:48:36;;;;;;;;;;;;;;;29.32;59.81;101124.78;5093466;27;66683;-35
2023/02/08 01:51:19;;;;;;;;;;;;;;;29.34;59.26;101130.00;5094194;27;69830;-34
2023/02/08 01:53:52;;;;;;;;;;;;;;;29.35;59.67;101127.09;5095665;27;65457;-36
2023/02/08 01:56:28;;;;;;;;;;;;;;;28.94;59.65;101049.63;5093368;27;69948;-41
2023/02/08 01:59:00;;;;;;;;;;;;;;;29.38;59.56;101118.56;5075580;27;66113;-35
2023/02/08 02:01:31;;;;;;;;;;;;;;;29.41;59.44;101125.44;5077325;27;68719;-35
2023/02/08 02:04:04;;;;;;;;;;;;;;;29.43;59.14;101125.25;5089056;27;66406;-36
2023/02/08 02:06:38;;;;;;;;;;;;;;;29.45;59.46;101120.44;5095573;27;69741;-38
2023/02/08 02:09:12;;;;;;;;;;;;;;;29.46;59.00;101124.81;5093391;27;67061;-35
2023/02/08 02:11:42;;;;;;;;;;;;;;;29.48;59.26;101126.28;5085711;27;70418;-36
2023/02/08 02:14:12;;;;;;;;;;;;;;;29.51;59.02;101119.66;5077710;27;65709;-35
2023/02/08 02:16:42;;;;;;;;;;;;;;;29.53;59.06;101122.94;5094348;27;68645;-35
2023/02/08 02:19:17;;;;;;;;;;;;;;;29.55;58.97;101121.72;5080009;27;65370;-36
2023/02/08 02:22:10;;;;;;;;;;;;;;;29.57;58.61;101121.53;5096000;27;69994;-34
2023/02/08 02:24:50;;;;;;;;;;;;;;;29.59;58.54;101111.34;5089805;27;66274;-36
2023/02/08 02:27:26;;;;;;;;;;;;;;;29.62;58.50;101121.75;5094086;27;69830;-35
2023/02/08 02:30:06;;;;;;;;;;;;;;;29.64;58.49;101119.66;5093971;27;66388;-35
2023/02/08 02:32:43;;;;;;;;;;;;;;;29.66;58.50;101117.59;5095182;27;69048;-36
2023/02/08 02:35:19;;;;;;;;;;;;;;;29.68;58.31;101126.34;5096927;27;66565;-37
2023/02/08 02:38:06;;;;;;;;;;;;;;;29.71;58.87;101120.53;5089241;27;70498;-37
2023/02/08 02:40:56;;;;;;;;;;;;;;;29.73;58.59;101118.47;5080061;27;66648;-35
2023/02/08 02:43:51;;;;;;;;;;;;;;;29.75;58.49;101110.13;5073831;27;70622;-35
2023/02/08 02:46:28;;;;;;;;;;;;;;;29.77;58.25;101108.88;5093164;27;66844;-35
2023/02/08 02:49:21;;;;;;;;;;;;;;;29.79;58.59;101097.88;5089159;27;70416;-35
2023/02/08 02:52:16;;;;;;;;;;;;;;;29.82;58.50;101106.38;5068533;27;66971;-35
2023/02/08 02:54:50;;;;;;;;;;;;;;;29.84;58.64;101101.59;5094427;27;69505;-36
2023/02/08 02:57:23;;;;;;;;;;;;;;;29.89;58.13;101100.13;5091026;27;66988;-35
2023/02/08 02:59:53;;;;;;;;;;;;;;;29.90;57.89;101102.66;5080999;27;70441;-36
2023/02/08 03:02:25;;;;;;;;;;;;;;;29.93;57.81;101093.28;5087840;27;66595;-35
2023/02/08 03:04:56;;;;;;;;;;;;;;;29.95;57.90;101083.06;5092238;27;70428;-34
2023/02/08 03:07:36;;;;;;;;;;;;;;;29.97;58.21;101081.00;5094930;27;66022;-37
2023/02/08 03:10:12;;;;;;;;;;;;;;;29.99;57.87;101076.22;5094461;27;70442;-35
2023/02/08 03:13:00;;;;;;;;;;;;;;;30.02;58.12;101094.72;5098424;27;66837;-36
2023/02/08 03:15:30;;;;;;;;;;;;;;;30.04;58.33;101082.66;5090971;27;69147;-36
2023/02/08 03:18:05;;;;;;;;;;;;;;;30.08;57.72;101079.53;5101431;27;66802;-36
2023/02/08 03:20:38;;;;;;;;;;;;;;;30.10;58.23;101070.16;5083548;27;70403;-34
2023/02/08 03:23:08;;;;;;;;;;;;;;;30.12;57.50;101065.38;5097787;27;65577;-36
2023/02/08 03:25:47;;;;;;;;;;;;;;;30.14;58.00;101065.97;5092808;27;70334;-37
2023/02/08 03:28:26;;;;;;;;;;;;;;;30.16;58.18;101054.97;5083720;27;66407;-35
2023/02/08 03:31:21;;;;;;;;;;;;;;;30.19;57.58;101058.06;5088457;27;70631;-35
2023/02/08 03:34:12;;;;;;;;;;;;;;;30.21;57.37;101050.56;5099556;27;67033;-36
2023/02/08 03:36:47;;;;;;;;;;;;;;;30.23;57.99;101043.13;5096630;27;70642;-36
2023/02/08 03:39:20;;;;;;;;;;;;;;;30.27;57.44;101038.94;5091390;27;66834;-36
2023/02/08 03:41:53;;;;;;;;;;;;;;;30.30;57.45;101028.72;5100707;27;68910;-36
2023/02/08 03:44:33;;;;;;;;;;;;;;;30.32;57.25;101034.78;5087105;27;66631;-34
2023/02/08 03:47:07;;;;;;;;;;;;;;;30.33;57.60;101026.44;5094080;27;70379;-36
2023/02/08 03:49:38;;;;;;;;;;;;;;;30.37;57.58;101016.00;5091431;27;66785;-35
2023/02/08 03:52:09;;;;;;;;;;;;;;;30.38;56.90;101017.69;5092555;27;70561;-35
2023/02/08 03:54:47;;;;;;;;;;;;;;;30.42;57.14;101018.91;5099337;27;65381;-35
2023/02/08 03:57:22;;;;;;;;;;;;;;;30.43;57.05;101009.75;5091207;27;70390;-36
2023/02/08 04:00:06;;;;;;;;;;;;;;;30.45;56.74;101002.22;5090300;27;66009;-35
2023/02/08 04:03:11;;;;;;;;;;;;;;;30.46;57.20;100993.91;5091681;27;69906;-37
2023/02/08 04:05:41;;;;;;;;;;;;;;;30.51;57.01;101001.38;5082999;27;65429;-38
2023/02/08 04:08:11;;;;;;;;;;;;;;;30.54;56.49;100995.53;5089292;27;69429;-35
2023/02/08 04:10:42;;;;;;;;;;;;;;;30.56;57.05;100993.44;5098090;27;66341;-36
2023/02/08 04:13:12;;;;;;;;;;;;;;;30.59;56.81;100987.59;5096533;27;69672;-35
2023/02/08 04:15:43;;;;;;;;;;;;;;;30.61;56.61;100990.91;5093477;27;66927;-37
2023/02/08 04:18:13;;;;;;;;;;;;;;;30.63;56.30;100978.00;5097133;27;70712;-35
2023/02/08 04:20:43;;;;;;;;;;;;;;;30.65;56.42;100970.50;5091288;27;66998;-35
2023/02/08 04:23:14;;;;;;;;;;;;;;;30.68;56.28;100975.47;5096879;27;69764;-35
2023/02/08 04:25:44;;;;;;;;;;;;;;;30.70;56.17;100967.97;5081890;27;66801;-35
2023/02/08 04:28:14;;;;;;;;;;;;;;;30.49;56.39;100930.38;5095212;27;70661;-35
2023/02/08 04:30:44;;;;;;;;;;;;;;;30.75;56.73;100969.19;5091019;27;66333;-35
2023/02/08 04:33:15;;;;;;;;;;;;;;;30.76;56.23;100965.41;5094313;27;70524;-35
2023/02/08 04:35:45;;;;;;;;;;;;;;;30.78;56.66;100964.16;5086385;27;65408;-35
2023/02/08 04:38:16;;;;;;;;;;;;;;;30.80;56.05;100945.03;5091881;27;69202;-36
2023/02/08 04:40:46;;;;;;;;;;;;;;;30.81;56.43;100946.66;5096763;27;67055;-35
2023/02/08 04:43:16;;;;;;;;;;;;;;;30.81;56.01;100936.66;5090603;27;70346;-35
2023/02/08 04:45:48;;;;;;;;;;;;;;;30.85;55.92;100937.06;5100147;27;66199;-35
2023/02/08 04:48:18;;;;;;;;;;;;;;;30.87;55.88;100924.13;5096964;27;70668;-35
2023/02/08 04:50:49;;;;;;;;;;;;;;;30.89;56.41;100927.44;5090811;27;66031;-36
2023/02/08 04:53:20;;;;;;;;;;;;;;;30.91;56.00;100912.66;5093213;27;69836;-36
2023/02/08 04:55:50;;;;;;;;;;;;;;;30.93;55.90;100918.69;5100665;27;64987;-35
2023/02/08 04:58:21;;;;;;;;;;;;;;;30.95;55.61;100904.91;5089491;27;70506;-36
2023/02/08 05:00:52;;;;;;;;;;;;;;;30.97;56.15;100901.97;5093772;27;65282;-34
2023/02/08 05:03:22;;;;;;;;;;;;;;;30.98;55.86;100898.22;5092600;27;69642;-36
2023/02/08 05:05:56;;;;;;;;;;;;;;;30.99;55.90;100889.88;5081419;27;66799;-36
2023/02/08 05:08:28;;;;;;;;;;;;;;;31.01;55.50;100882.38;5095236;27;69856;-35
2023/02/08 05:10:58;;;;;;;;;;;;;;;31.03;55.50;100882.94;5089263;27;66019;-35
2023/02/08 05:13:28;;;;;;;;;;;;;;;31.05;55.94;100878.16;5098081;27;70245;-36
2023/02/08 05:15:58;;;;;;;;;;;;;;;31.06;55.30;100868.97;5097465;27;67061;-35
2023/02/08 05:18:28;;;;;;;;;;;;;;;31.09;55.73;100864.97;5087589;27;70701;-36
2023/02/08 05:21:00;;;;;;;;;;;;;;;31.11;55.43;100862.88;5087446;27;67209;-35
2023/02/08 05:23:31;;;;;;;;;;;;;;;31.12;55.42;100857.25;5099158;27;71101;-36
2023/02/08 05:26:04;;;;;;;;;;;;;;;31.14;55.44;100855.13;5078106;27;65789;-35
2023/02/08 05:28:35;;;;;;;;;;;;;;;31.16;55.72;100861.16;5100175;27;69882;-35
2023/02/08 05:31:13;;;;;;;;;;;;;;;31.17;55.74;100851.16;5100956;27;66713;-36
2023/02/08 05:33:44;;;;;;;;;;;;;;;31.19;55.78;100846.34;5091378;27;69270;-34
2023/02/08 05:36:14;;;;;;;;;;;;;;;31.22;55.47;100839.66;5093157;27;65744;-35
2023/02/08 05:38:45;;;;;;;;;;;;;;;31.25;55.74;100831.91;5096536;27;69829;-35
2023/02/08 05:41:15;;;;;;;;;;;;;;;31.26;55.42;100825.44;5101549;27;66533;-35
2023/02/08 05:43:46;;;;;;;;;;;;;;;31.28;55.44;100817.06;5097523;27;70310;-35
2023/02/08 05:46:16;;;;;;;;;;;;;;;31.30;55.41;100820.41;5089917;27;66380;-34
2023/02/08 05:48:46;;;;;;;;;;;;;;;31.33;55.25;100819.94;5093808;27;71170;-36
2023/02/08 05:51:16;;;;;;;;;;;;;;;31.36;55.03;100804.06;5096376;27;66051;-35
2023/02/08 05:53:46;;;;;;;;;;;;;;;31.38;55.39;100801.16;5089453;27;70486;-36
2023/02/08 05:56:16;;;;;;;;;;;;;;;31.39;55.25;100789.25;5094524;27;67672;-36
2023/02/08 05:58:47;;;;;;;;;;;;;;;31.42;54.92;100786.09;5085924;27;70663;-36
2023/02/08 06:01:17;;;;;;;;;;;;;;;31.45;55.26;100784.81;5096247;27;66748;-35
2023/02/08 06:03:47;;;;;;;;;;;;;;;31.45;54.79;100791.03;5096558;27;70375;-37
2023/02/08 06:06:18;;;;;;;;;;;;;;;31.48;54.99;100789.78;5089649;27;65868;-34
2023/02/08 06:08:48;;;;;;;;;;;;;;;31.50;54.65;100783.06;5092337;27;69819;-36
2023/02/08 06:11:19;;;;;;;;;;;;;;;31.52;54.72;100772.84;5097892;27;66800;-37
2023/02/08 06:13:49;;;;;;;;;;;;;;;31.54;54.55;100773.44;5093135;27;70496;-36
2023/02/08 06:16:19;;;;;;;;;;;;;;;31.55;54.91;100758.81;5091794;27;66885;-36
2023/02/08 06:18:49;;;;;;;;;;;;;;;31.57;54.97;100758.59;5079054;27;69137;-35
2023/02/08 06:21:20;;;;;;;;;;;;;;;31.59;54.62;100749.19;5082407;27;65904;-35
2023/02/08 06:23:52;;;;;;;;;;;;;;;31.61;54.66;100741.63;5072618;27;70078;-38
2023/02/08 06:26:22;;;;;;;;;;;;;;;31.64;54.33;100723.25;5096587;27;66778;-37
2023/02/08 06:28:53;;;;;;;;;;;;;;;31.65;54.43;100720.34;5071182;27;69942;-37
2023/02/08 06:31:23;;;;;;;;;;;;;;;31.67;54.43;100709.25;5090401;27;65798;-37
2023/02/08 06:33:53;;;;;;;;;;;;;;;31.69;54.24;100705.25;5079558;27;71275;-37
2023/02/08 06:36:23;;;;;;;;;;;;;;;31.71;54.52;100705.84;5082921;27;66930;-36
2023/02/08 06:38:54;;;;;;;;;;;;;;;31.73;54.32;100689.31;5093238;27;69720;-37
2023/02/08 06:41:24;;;;;;;;;;;;;;;31.75;54.26;100698.88;5084179;27;66644;-35
2023/02/08 06:43:57;;;;;;;;;;;;;;;31.79;54.17;100699.28;5097789;27;69123;-36
2023/02/08 06:46:28;;;;;;;;;;;;;;;31.81;54.28;100691.72;5092121;27;66637;-35
2023/02/08 06:48:59;;;;;;;;;;;;;;;31.82;54.03;100683.38;5093788;27;69773;-34
2023/02/08 06:51:29;;;;;;;;;;;;;;;31.87;53.94;100685.34;5100494;27;66790;-35
2023/02/08 06:53:59;;;;;;;;;;;;;;;31.89;53.81;100675.09;5096408;27;69838;-37
2023/02/08 06:56:29;;;;;;;;;;;;;;;31.90;53.82;100657.78;5094073;27;66118;-37
2023/02/08 06:58:59;;;;;;;;;;;;;;;31.93;53.67;100660.06;5089992;27;70619;-36
2023/02/08 07:01:30;;;;;;;;;;;;;;;31.97;53.96;100658.53;5101327;27;66647;-35
2023/02/08 07:04:00;;;;;;;;;;;;;;;32.00;53.72;100651.81;5104107;27;69802;-35
2023/02/08 07:06:30;;;;;;;;;;;;;;;32.02;53.60;100647.81;5101857;27;66075;-35
2023/02/08 07:09:03;;;;;;;;;;;;;;;32.05;53.71;100641.91;5102500;27;69701;-34
2023/02/08 07:11:33;;;;;;;;;;;;;;;32.10;53.51;100640.41;5102692;27;66262;-35
2023/02/08 07:14:03;;;;;;;;;;;;;;;32.12;53.46;100627.41;5099566;27;69489;-37
2023/02/08 07:16:33;;;;;;;;;;;;;;;32.16;53.59;100628.59;5086026;27;67468;-35
2023/02/08 07:19:03;;;;;;;;;;;;;;;32.20;53.46;100633.31;5101794;27;69684;-35
2023/02/08 07:21:35;;;;;;;;;;;;;;;32.23;53.31;100624.72;5102186;27;66771;-36
2023/02/08 07:24:05;;;;;;;;;;;;;;;32.26;53.25;100623.41;5093852;27;69663;-36
2023/02/08 07:26:35;;;;;;;;;;;;;;;32.30;53.00;100621.88;5089790;27;66993;-36
2023/02/08 07:29:05;;;;;;;;;;;;;;;32.33;53.01;100612.44;5095527;27;70523;-35
2023/02/08 07:31:35;;;;;;;;;;;;;;;32.36;52.99;100604.63;5098118;27;66837;-35
2023/02/08 07:34:05;;;;;;;;;;;;;;;32.39;52.71;100606.88;5093608;27;71189;-35
2023/02/08 07:36:36;;;;;;;;;;;;;;;32.45;52.84;100602.38;5074129;27;66202;-35
2023/02/08 07:39:06;;;;;;;;;;;;;;;32.46;52.73;100594.03;5089323;27;70525;-36
2023/02/08 07:41:36;;;;;;;;;;;;;;;32.51;52.79;100587.88;5095777;27;66206;-38
2023/02/08 07:44:06;;;;;;;;;;;;;;;32.53;52.53;100579.50;5077867;27;70160;-38
2023/02/08 07:46:36;;;;;;;;;;;;;;;32.55;52.48;100586.34;5100508;27;66567;-37
2023/02/08 07:49:07;;;;;;;;;;;;;;;32.59;52.47;100586.69;5099462;27;70356;-37
2023/02/08 07:51:37;;;;;;;;;;;;;;;32.59;52.35;100579.38;5094535;27;65965;-35
2023/02/08 07:54:07;;;;;;;;;;;;;;;32.63;52.34;100579.72;5098693;27;70766;-35
2023/02/08 07:56:38;;;;;;;;;;;;;;;32.67;52.21;100580.88;5097441;27;65707;-35
2023/02/08 07:59:08;;;;;;;;;;;;;;;32.71;52.20;100582.09;5092029;27;70431;-36
2023/02/08 08:01:38;;;;;;;;;;;;;;;32.72;52.07;100578.28;5098080;27;66503;-35
2023/02/08 08:04:09;;;;;;;;;;;;;;;32.76;52.09;100571.28;5095883;27;69797;-35
2023/02/08 08:06:39;;;;;;;;;;;;;;;32.80;52.12;100569.75;5089674;27;66175;-43
2023/02/08 08:09:10;;;;;;;;;;;;;;;32.84;51.73;100576.34;5093555;27;69965;-36
2023/02/08 08:11:41;;;;;;;;;;;;;;;32.86;51.77;100567.97;5097743;27;65922;-36
2023/02/08 08:14:11;;;;;;;;;;;;;;;32.90;51.76;100569.13;5070086;27;69858;-35
2023/02/08 08:16:42;;;;;;;;;;;;;;;32.90;51.48;100569.97;5093620;27;65507;-35
2023/02/08 08:19:13;;;;;;;;;;;;;;;32.92;51.52;100565.09;5095488;27;70689;-34
2023/02/08 08:21:43;;;;;;;;;;;;;;;32.95;51.61;100571.94;5094908;27;65805;-35
2023/02/08 08:24:13;;;;;;;;;;;;;;;32.98;51.42;100565.22;5098649;27;70705;-34
2023/02/08 08:26:43;;;;;;;;;;;;;;;32.99;51.51;100561.41;5096741;27;66209;-35
2023/02/08 08:29:14;;;;;;;;;;;;;;;33.02;51.38;100563.72;5091770;27;70931;-36
2023/02/08 08:31:44;;;;;;;;;;;;;;;33.03;51.08;100566.16;5095480;27;67207;-35
2023/02/08 08:34:14;;;;;;;;;;;;;;;33.07;51.25;100563.78;5094379;27;69696;-36
2023/02/08 08:36:44;;;;;;;;;;;;;;;33.09;51.33;100567.09;5094971;27;67680;-37
2023/02/08 08:39:15;;;;;;;;;;;;;;;33.09;51.23;100561.66;5094107;27;69203;-35
2023/02/08 08:41:45;;;;;;;;;;;;;;;33.10;51.19;100557.88;5089497;27;66182;-35
2023/02/08 08:44:15;;;;;;;;;;;;;;;33.11;51.41;100560.34;5091805;27;69315;-36
2023/02/08 08:46:45;;;;;;;;;;;;;;;33.14;51.19;100567.19;5099038;27;66095;-35
2023/02/08 08:49:15;;;;;;;;;;;;;;;33.15;51.26;100571.53;5093973;27;70278;-37
2023/02/08 08:51:46;;;;;;;;;;;;;;;33.19;51.11;100572.72;5094749;27;65612;-35
2023/02/08 08:54:16;;;;;;;;;;;;;;;33.19;50.93;100567.28;5095233;27;69847;-37
2023/02/08 08:56:47;;;;;;;;;;;;;;;33.20;51.21;100574.34;5095598;27;65580;-35
2023/02/08 08:59:17;;;;;;;;;;;;;;;33.23;51.03;100571.16;5077324;27;70257;-36
2023/02/08 09:01:47;;;;;;;;;;;;;;;33.23;51.00;100576.59;5096457;27;65890;-37
2023/02/08 09:04:18;;;;;;;;;;;;;;;33.24;51.10;100580.97;5075258;27;69834;-35
2023/02/08 09:06:49;;;;;;;;;;;;;;;33.26;51.10;100588.88;5092624;27;66676;-35
2023/02/08 09:09:20;;;;;;;;;;;;;;;33.26;51.13;100578.81;5099500;27;69932;-35
2023/02/08 09:11:51;;;;;;;;;;;;;;;33.28;51.41;100575.88;5096903;27;65619;-36
2023/02/08 09:14:21;;;;;;;;;;;;;;;33.21;51.19;100580.63;5094004;27;69069;-36
2023/02/08 09:16:52;;;;;;;;;;;;;;;32.89;53.04;100576.47;5094384;27;66890;-36
2023/02/08 09:19:22;;;;;;;;;;;;;;;32.72;54.29;100572.84;5098110;27;68885;-36
2023/02/08 09:21:53;;;;;;;;;;;;;;;32.63;54.51;100574.31;5097674;27;65672;-35
2023/02/08 09:24:23;;;;;;;;;;;;;;;32.57;55.32;100569.81;5099298;27;69326;-37
2023/02/08 09:26:53;;;;;;;;;;;;;;;32.47;55.43;100571.25;5097083;27;66853;-36
2023/02/08 09:29:23;;;;;;;;;;;;;;;32.42;55.82;100579.25;5096523;27;69848;-35
2023/02/08 09:31:54;;;;;;;;;;;;;;;32.40;56.05;100578.69;5098570;27;66584;-36
2023/02/08 09:34:24;;;;;;;;;;;;;;;32.39;56.97;100590.59;5096837;27;68989;-38
2023/02/08 09:36:55;;;;;;;;;;;;;;;32.39;57.94;100600.63;5097032;27;66055;-36
2023/02/08 09:39:26;;;;;;;;;;;;;;;32.37;58.25;100591.88;5096512;27;69796;-36
2023/02/08 09:42:05;;;;;;;;;;;;;;;32.35;58.70;100600.28;5098817;27;66683;-34
2023/02/08 09:44:45;;;;;;;;;;;;;;;32.34;59.31;100597.78;5098910;27;69931;-37
2023/02/08 09:47:15;;;;;;;;;;;;;;;32.34;59.22;100597.78;5088822;27;66093;-37
2023/02/08 09:50:08;;;;;;;;;;;;;;;32.30;58.80;100586.59;5091071;27;69959;-37
2023/02/08 09:52:41;;;;;;;;;;;;;;;32.27;58.97;100592.50;5084142;27;65998;-38
2023/02/08 09:55:15;;;;;;;;;;;;;;;32.25;58.49;100595.44;5076668;27;69465;-38
2023/02/08 09:57:46;;;;;;;;;;;;;;;32.24;58.89;100609.25;5086919;27;66576;-38
2023/02/08 10:00:20;;;;;;;;;;;;;;;32.24;59.25;100628.25;5094195;27;69868;-39
2023/02/08 10:02:53;;;;;;;;;;;;;;;32.23;59.31;100641.00;5094596;27;66715;-41
2023/02/08 10:05:25;;;;;;;;;;;;;;;32.24;59.35;100647.25;5095764;27;69283;-37
2023/02/08 10:07:57;;;;;;;;;;;;;;;32.24;59.45;100658.09;5097246;27;65556;-37
2023/02/08 10:10:31;;;;;;;;;;;;;;;32.26;59.13;100672.25;5091519;27;69511;-37
2023/02/08 10:13:21;;;;;;;;;;;;;;;32.25;59.52;100670.59;5096089;27;66266;-37
2023/02/08 10:16:32;;;;;;;;;;;;;;;32.23;59.59;100684.44;5088172;27;70645;-39
2023/02/08 10:19:11;;;;;;;;;;;;;;;32.25;59.71;100676.03;5099988;27;66223;-38
2023/02/08 10:21:41;;;;;;;;;;;;;;;32.26;60.03;100685.81;5095281;27;70386;-38
2023/02/08 10:24:21;;;;;;;;;;;;;;;32.24;60.29;100688.78;5097595;27;66383;-40
2023/02/08 10:27:03;;;;;;;;;;;;;;;32.23;60.59;100694.44;5090353;27;70343;-39
2023/02/08 10:29:33;;;;;;;;;;;;;;;32.24;60.36;100701.53;5098030;27;66026;-39
2023/02/08 10:32:09;;;;;;;;;;;;;;;32.22;60.60;100715.31;5098737;27;70380;-40
2023/02/08 10:34:51;;;;;;;;;;;;;;;32.21;61.06;100719.09;5096539;27;66692;-39
2023/02/08 10:37:37;;;;;;;;;;;;;;;31.99;61.94;100705.25;5089564;27;70480;-37
2023/02/08 10:40:22;;;;;;;;;;;;;;;32.20;61.94;100732.91;5094106;27;66338;-38
2023/02/08 10:43:12;;;;;;;;;;;;;;;32.17;62.38;100722.50;5091332;27;70385;-39
2023/02/08 10:46:03;;;;;;;;;;;;;;;32.15;62.91;100724.63;5073020;27;67439;-40
2023/02/08 10:48:36;;;;;;;;;;;;;;;32.15;62.74;100730.06;5093190;27;69610;-37
2023/02/08 10:51:15;;;;;;;;;;;;;;;32.20;62.55;100722.03;5084046;27;66130;-37
2023/02/08 10:53:46;;;;;;;;;;;;;;;32.32;62.07;100733.75;5077841;27;70574;-37
2023/02/08 10:56:38;;;;;;;;;;;;;;;32.41;61.42;100729.63;5094394;27;65522;-37
2023/02/08 10:59:34;;;;;;;;;;;;;;;32.47;61.22;100734.16;5093042;27;70755;-37
2023/02/08 11:02:19;;;;;;;;;;;;;;;32.54;61.23;100744.06;5068763;27;66224;-36
2023/02/08 11:04:58;;;;;;;;;;;;;;;32.58;60.83;100747.97;5094795;27;69666;-38
2023/02/08 11:07:29;;;;;;;;;;;;;;;32.59;60.55;100755.06;5093509;27;66225;-37
2023/02/08 11:10:19;;;;;;;;;;;;;;;32.61;60.63;100750.22;5094315;27;70355;-39
2023/02/08 11:12:57;;;;;;;;;;;;;;;32.62;60.04;100751.88;5097535;27;66572;-38
2023/02/08 11:15:36;;;;;;;;;;;;;;;32.63;60.05;100750.81;5097656;27;70196;-39
2023/02/08 11:18:16;;;;;;;;;;;;;;;32.62;59.56;100762.72;5093699;27;66033;-39
2023/02/08 11:20:48;;;;;;;;;;;;;;;32.61;59.65;100761.09;5098530;27;69152;-38
2023/02/08 11:23:29;;;;;;;;;;;;;;;32.61;59.85;100758.38;5082790;27;66445;-39
2023/02/08 11:26:14;;;;;;;;;;;;;;;32.61;59.63;100758.38;5088409;27;70576;-36
2023/02/08 11:28:57;;;;;;;;;;;;;;;32.60;59.11;100754.00;5093661;27;67001;-38
2023/02/08 11:31:28;;;;;;;;;;;;;;;32.59;58.76;100764.03;5091965;27;69216;-37
2023/02/08 11:34:00;;;;;;;;;;;;;;;32.59;58.78;100761.31;5088105;27;66602;-37
2023/02/08 11:36:32;;;;;;;;;;;;;;;32.58;58.53;100769.72;5092589;27;70632;-37
2023/02/08 11:39:15;;;;;;;;;;;;;;;32.45;59.36;100771.53;5094654;27;66207;-39
2023/02/08 11:41:47;;;;;;;;;;;;;;;32.26;60.47;100769.97;5096477;27;70074;-38
2023/02/08 11:44:26;;;;;;;;;;;;;;;31.91;60.67;100735.44;5093206;27;66018;-38
2023/02/08 11:47:01;;;;;;;;;;;;;;;32.08;61.52;100780.91;5079102;27;70726;-38
2023/02/08 11:49:41;;;;;;;;;;;;;;;32.02;61.17;100779.94;5094064;27;66135;-38
2023/02/08 11:52:19;;;;;;;;;;;;;;;31.97;61.74;100772.47;5100555;27;70412;-38
2023/02/08 11:54:50;;;;;;;;;;;;;;;31.92;62.57;100777.75;5078631;27;65443;-37
2023/02/08 11:57:22;;;;;;;;;;;;;;;31.93;62.84;100792.16;5093631;27;69886;-36
2023/02/08 12:00:09;;;;;;;;;;;;;;;31.89;62.15;100790.94;5096754;27;66336;-38
2023/02/08 12:02:42;;;;;;;;;;;;;;;31.68;59.15;100803.09;5096546;27;69317;-37
2023/02/08 12:05:14;;;;;;;;;;;;;;;31.49;56.82;100794.97;5088288;27;66946;-37
2023/02/08 12:08:04;;;;;;;;;;;;;;;31.29;54.64;100810.63;5095941;27;70220;-38
2023/02/08 12:10:44;;;;;;;;;;;;;;;31.11;53.23;100806.81;5085988;27;66094;-36
2023/02/08 12:13:16;;;;;;;;;;;;;;;30.94;52.06;100811.16;5080763;27;69913;-34
2023/02/08 12:15:52;;;;;;;;;;;;;;;30.81;50.53;100805.84;5082909;27;66811;-34
2023/02/08 12:18:38;;;;;;;;;;;;;;;30.71;49.36;100801.75;5100232;27;69279;-37
2023/02/08 12:21:11;;;;;;;;;;;;;;;30.59;48.53;100808.06;5100415;27;66021;-36
2023/02/08 12:23:51;;;;;;;;;;;;;;;30.51;47.74;100811.91;5101380;27;70412;-34
2023/02/08 12:26:39;;;;;;;;;;;;;;;30.42;47.57;100807.78;5094014;27;66950;-35
2023/02/08 12:29:28;;;;;;;;;;;;;;;30.36;47.67;100814.09;5094839;27;69458;-37
2023/02/08 12:32:32;;;;;;;;;;;;;;;30.25;46.67;100819.13;5100011;27;67226;-36
2023/02/08 12:35:06;;;;;;;;;;;;;;;30.21;46.16;100823.31;5092433;27;69543;-35
2023/02/08 12:41:11;;;;;;;;;;;;;;;30.09;45.85;100824.19;5094838;27;70389;-35
2023/02/08 12:44:01;;;;;;;;;;;;;;;30.02;45.28;100824.25;5065839;27;66154;-35
2023/02/08 12:46:46;;;;;;;;;;;;;;;29.95;46.01;100826.13;5094821;27;69123;-35
2023/02/08 12:49:25;;;;;;;;;;;;;;;29.90;45.64;100825.97;5094012;27;66320;-35
2023/02/08 12:51:56;;;;;;;;;;;;;;;29.83;45.55;100832.22;5095851;27;70560;-36
2023/02/08 12:54:33;;;;;;;;;;;;;;;29.80;46.33;100838.06;5095149;27;66842;-35
2023/02/08 12:57:05;;;;;;;;;;;;;;;29.77;46.02;100838.50;5074233;28;69997;-35
2023/02/08 12:59:38;;;;;;;;;;;;;;;29.73;45.37;100845.38;5094823;27;66149;-37
2023/02/08 13:02:16;;;;;;;;;;;;;;;29.69;44.69;100841.44;5091446;27;70492;-38
2023/02/08 13:04:49;;;;;;;;;;;;;;;29.65;45.07;100845.63;5097232;27;66877;-36
2023/02/08 13:07:19;;;;;;;;;;;;;;;29.58;44.19;100845.59;5100046;27;70141;-36
2023/02/08 13:10:03;;;;;;;;;;;;;;;29.56;44.37;100853.09;5095996;27;67066;-35
2023/02/08 13:12:41;;;;;;;;;;;;;;;29.51;44.17;100854.78;5089653;27;69922;-34
2023/02/08 13:15:19;;;;;;;;;;;;;;;29.47;44.15;100861.63;5080327;27;66541;-36